sensor_id;sensor_type;location;lat;lon;timestamp;temperature;humidity
3037;DHT22;1528;52.550;13.408;2023-12-20T00:01:14;8.30;54.70
3037;DHT22;1528;52.550;13.408;2023-12-20T00:04:02;8.30;54.60
3037;DHT22;1528;52.550;13.408;2023-12-20T00:06:47;8.30;54.70
3037;DHT22;1528;52.550;13.408;2023-12-20T00:09:33;8.30;54.70
3037;DHT22;1528;52.550;13.408;2023-12-20T00:12:18;8.30;54.70
3037;DHT22;1528;52.550;13.408;2023-12-20T00:15:04;8.30;54.60
3037;DHT22;1528;52.550;13.408;2023-12-20T00:17:50;8.20;54.70
3037;DHT22;1528;52.550;13.408;2023-12-20T00:20:37;8.20;54.70
3037;DHT22;1528;52.550;13.408;2023-12-20T00:23:23;8.30;54.80
3037;DHT22;1528;52.550;13.408;2023-12-20T00:26:09;8.20;54.70
3037;DHT22;1528;52.550;13.408;2023-12-20T00:28:54;8.20;54.80
3037;DHT22;1528;52.550;13.408;2023-12-20T00:31:40;8.20;54.70
3037;DHT22;1528;52.550;13.408;2023-12-20T00:34:26;8.20;54.70
3037;DHT22;1528;52.550;13.408;2023-12-20T00:37:13;8.20;54.60
3037;DHT22;1528;52.550;13.408;2023-12-20T00:39:58;8.20;54.90
3037;DHT22;1528;52.550;13.408;2023-12-20T00:42:44;8.20;55.10
3037;DHT22;1528;52.550;13.408;2023-12-20T00:45:31;8.20;55.10
3037;DHT22;1528;52.550;13.408;2023-12-20T00:48:16;8.20;55.20
3037;DHT22;1528;52.550;13.408;2023-12-20T00:51:02;8.20;55.20
3037;DHT22;1528;52.550;13.408;2023-12-20T00:53:49;8.20;55.20
3037;DHT22;1528;52.550;13.408;2023-12-20T00:56:38;8.20;55.00
3037;DHT22;1528;52.550;13.408;2023-12-20T00:59:24;8.30;55.40
3037;DHT22;1528;52.550;13.408;2023-12-20T01:02:09;8.20;55.40
3037;DHT22;1528;52.550;13.408;2023-12-20T01:04:55;8.20;55.20
3037;DHT22;1528;52.550;13.408;2023-12-20T01:07:40;8.20;55.10
3037;DHT22;1528;52.550;13.408;2023-12-20T01:10:28;8.20;55.00
3037;DHT22;1528;52.550;13.408;2023-12-20T01:13:13;8.20;55.10
3037;DHT22;1528;52.550;13.408;2023-12-20T01:15:59;8.20;55.20
3037;DHT22;1528;52.550;13.408;2023-12-20T01:18:44;8.20;55.30
3037;DHT22;1528;52.550;13.408;2023-12-20T01:21:30;8.20;55.10
3037;DHT22;1528;52.550;13.408;2023-12-20T01:24:16;8.20;55.20
3037;DHT22;1528;52.550;13.408;2023-12-20T01:27:03;8.30;55.40
3037;DHT22;1528;52.550;13.408;2023-12-20T01:29:49;8.20;55.50
3037;DHT22;1528;52.550;13.408;2023-12-20T01:32:34;8.20;55.60
3037;DHT22;1528;52.550;13.408;2023-12-20T01:35:20;8.20;55.80
3037;DHT22;1528;52.550;13.408;2023-12-20T01:38:05;8.20;55.90
3037;DHT22;1528;52.550;13.408;2023-12-20T01:40:51;8.20;56.10
3037;DHT22;1528;52.550;13.408;2023-12-20T01:43:38;8.20;56.40
3037;DHT22;1528;52.550;13.408;2023-12-20T01:46:23;8.20;56.50
3037;DHT22;1528;52.550;13.408;2023-12-20T01:49:09;8.20;56.40
3037;DHT22;1528;52.550;13.408;2023-12-20T01:51:55;8.20;56.40
3037;DHT22;1528;52.550;13.408;2023-12-20T01:54:42;8.20;57.10
3037;DHT22;1528;52.550;13.408;2023-12-20T01:57:28;8.20;56.00
3037;DHT22;1528;52.550;13.408;2023-12-20T02:00:15;8.20;55.60
3037;DHT22;1528;52.550;13.408;2023-12-20T02:03:01;8.20;55.40
3037;DHT22;1528;52.550;13.408;2023-12-20T02:05:47;8.20;55.20
3037;DHT22;1528;52.550;13.408;2023-12-20T02:08:33;8.20;55.60
3037;DHT22;1528;52.550;13.408;2023-12-20T02:11:18;8.20;54.90
3037;DHT22;1528;52.550;13.408;2023-12-20T02:14:04;8.20;54.70
3037;DHT22;1528;52.550;13.408;2023-12-20T02:16:51;8.20;55.10
3037;DHT22;1528;52.550;13.408;2023-12-20T02:19:36;8.20;54.40
3037;DHT22;1528;52.550;13.408;2023-12-20T02:22:23;8.20;54.10
3037;DHT22;1528;52.550;13.408;2023-12-20T02:25:09;8.20;53.90
3037;DHT22;1528;52.550;13.408;2023-12-20T02:27:55;8.10;53.60
3037;DHT22;1528;52.550;13.408;2023-12-20T02:30:40;8.20;53.90
3037;DHT22;1528;52.550;13.408;2023-12-20T02:33:26;8.20;53.70
3037;DHT22;1528;52.550;13.408;2023-12-20T02:36:11;8.20;53.60
3037;DHT22;1528;52.550;13.408;2023-12-20T02:38:59;8.10;53.40
3037;DHT22;1528;52.550;13.408;2023-12-20T02:41:44;8.20;53.60
3037;DHT22;1528;52.550;13.408;2023-12-20T02:44:29;8.10;53.60
3037;DHT22;1528;52.550;13.408;2023-12-20T02:47:15;8.10;53.80
3037;DHT22;1528;52.550;13.408;2023-12-20T02:50:01;8.20;54.00
3037;DHT22;1528;52.550;13.408;2023-12-20T02:52:46;8.20;54.10
3037;DHT22;1528;52.550;13.408;2023-12-20T02:55:33;8.40;54.30
3037;DHT22;1528;52.550;13.408;2023-12-20T02:58:19;8.30;54.20
3037;DHT22;1528;52.550;13.408;2023-12-20T03:01:04;8.30;54.20
3037;DHT22;1528;52.550;13.408;2023-12-20T03:03:50;8.40;54.20
3037;DHT22;1528;52.550;13.408;2023-12-20T03:06:36;8.40;54.00
3037;DHT22;1528;52.550;13.408;2023-12-20T03:13:03;8.40;52.60
3037;DHT22;1528;52.550;13.408;2023-12-20T03:15:49;8.30;52.50
3037;DHT22;1528;52.550;13.408;2023-12-20T03:18:35;8.40;52.80
3037;DHT22;1528;52.550;13.408;2023-12-20T03:21:20;8.30;52.60
3037;DHT22;1528;52.550;13.408;2023-12-20T03:24:06;8.30;51.80
3037;DHT22;1528;52.550;13.408;2023-12-20T03:26:52;8.30;52.20
3037;DHT22;1528;52.550;13.408;2023-12-20T03:29:39;8.30;51.90
3037;DHT22;1528;52.550;13.408;2023-12-20T03:32:24;8.40;51.90
3037;DHT22;1528;52.550;13.408;2023-12-20T03:35:10;8.30;51.30
3037;DHT22;1528;52.550;13.408;2023-12-20T03:37:56;8.20;51.40
3037;DHT22;1528;52.550;13.408;2023-12-20T03:40:44;8.20;51.50
3037;DHT22;1528;52.550;13.408;2023-12-20T03:43:29;8.20;51.30
3037;DHT22;1528;52.550;13.408;2023-12-20T03:46:17;8.20;51.30
3037;DHT22;1528;52.550;13.408;2023-12-20T03:49:03;8.20;51.50
3037;DHT22;1528;52.550;13.408;2023-12-20T03:51:48;8.20;51.40
3037;DHT22;1528;52.550;13.408;2023-12-20T03:54:35;8.20;51.90
3037;DHT22;1528;52.550;13.408;2023-12-20T03:57:21;8.20;51.10
3037;DHT22;1528;52.550;13.408;2023-12-20T04:00:07;8.20;51.30
3037;DHT22;1528;52.550;13.408;2023-12-20T04:02:56;8.10;50.70
3037;DHT22;1528;52.550;13.408;2023-12-20T04:05:41;8.10;51.10
3037;DHT22;1528;52.550;13.408;2023-12-20T04:08:27;8.10;50.90
3037;DHT22;1528;52.550;13.408;2023-12-20T04:11:13;8.10;50.90
3037;DHT22;1528;52.550;13.408;2023-12-20T04:13:58;8.10;51.00
3037;DHT22;1528;52.550;13.408;2023-12-20T04:16:44;8.10;50.90
3037;DHT22;1528;52.550;13.408;2023-12-20T04:19:32;8.10;50.90
3037;DHT22;1528;52.550;13.408;2023-12-20T04:22:17;8.10;50.30
3037;DHT22;1528;52.550;13.408;2023-12-20T04:25:04;8.10;50.70
3037;DHT22;1528;52.550;13.408;2023-12-20T04:27:50;8.10;50.30
3037;DHT22;1528;52.550;13.408;2023-12-20T04:30:35;8.10;50.50
3037;DHT22;1528;52.550;13.408;2023-12-20T04:33:21;8.00;50.50
3037;DHT22;1528;52.550;13.408;2023-12-20T04:36:08;8.00;50.00
3037;DHT22;1528;52.550;13.408;2023-12-20T04:38:54;7.90;49.90
3037;DHT22;1528;52.550;13.408;2023-12-20T04:41:40;8.10;50.40
3037;DHT22;1528;52.550;13.408;2023-12-20T04:44:25;7.80;50.00
3037;DHT22;1528;52.550;13.408;2023-12-20T04:47:11;7.70;49.80
3037;DHT22;1528;52.550;13.408;2023-12-20T04:49:56;7.60;49.70
3037;DHT22;1528;52.550;13.408;2023-12-20T04:52:43;7.60;49.80
3037;DHT22;1528;52.550;13.408;2023-12-20T04:55:29;7.80;50.10
3037;DHT22;1528;52.550;13.408;2023-12-20T04:58:14;7.50;49.90
3037;DHT22;1528;52.550;13.408;2023-12-20T05:01:00;7.50;50.80
3037;DHT22;1528;52.550;13.408;2023-12-20T05:03:46;7.50;50.00
3037;DHT22;1528;52.550;13.408;2023-12-20T05:06:31;7.50;50.00
3037;DHT22;1528;52.550;13.408;2023-12-20T05:09:19;7.50;49.70
3037;DHT22;1528;52.550;13.408;2023-12-20T05:12:05;7.50;49.60
3037;DHT22;1528;52.550;13.408;2023-12-20T05:14:52;7.50;49.50
3037;DHT22;1528;52.550;13.408;2023-12-20T05:17:38;7.60;49.00
3037;DHT22;1528;52.550;13.408;2023-12-20T05:20:23;7.50;48.70
3037;DHT22;1528;52.550;13.408;2023-12-20T05:23:09;7.60;49.40
3037;DHT22;1528;52.550;13.408;2023-12-20T05:25:57;7.40;48.70
3037;DHT22;1528;52.550;13.408;2023-12-20T05:28:43;7.30;48.50
3037;DHT22;1528;52.550;13.408;2023-12-20T05:35:09;7.20;48.60
3037;DHT22;1528;52.550;13.408;2023-12-20T05:37:55;7.10;48.60
3037;DHT22;1528;52.550;13.408;2023-12-20T05:40:40;7.00;48.50
3037;DHT22;1528;52.550;13.408;2023-12-20T05:43:27;6.90;49.40
3037;DHT22;1528;52.550;13.408;2023-12-20T05:46:13;6.80;49.40
3037;DHT22;1528;52.550;13.408;2023-12-20T05:48:58;6.80;48.90
3037;DHT22;1528;52.550;13.408;2023-12-20T05:51:44;6.80;49.10
3037;DHT22;1528;52.550;13.408;2023-12-20T05:54:30;6.70;49.10
3037;DHT22;1528;52.550;13.408;2023-12-20T05:57:15;6.70;49.20
3037;DHT22;1528;52.550;13.408;2023-12-20T06:00:02;6.70;50.00
3037;DHT22;1528;52.550;13.408;2023-12-20T06:02:48;6.70;49.30
3037;DHT22;1528;52.550;13.408;2023-12-20T06:05:34;6.60;49.30
3037;DHT22;1528;52.550;13.408;2023-12-20T06:08:19;6.60;49.20
3037;DHT22;1528;52.550;13.408;2023-12-20T06:11:05;6.70;49.10
3037;DHT22;1528;52.550;13.408;2023-12-20T06:13:51;6.70;49.20
3037;DHT22;1528;52.550;13.408;2023-12-20T06:16:38;6.70;49.00
3037;DHT22;1528;52.550;13.408;2023-12-20T06:19:24;6.70;48.90
3037;DHT22;1528;52.550;13.408;2023-12-20T06:22:10;6.70;48.90
3037;DHT22;1528;52.550;13.408;2023-12-20T06:24:55;6.60;48.80
3037;DHT22;1528;52.550;13.408;2023-12-20T06:27:41;6.60;48.70
3037;DHT22;1528;52.550;13.408;2023-12-20T06:30:27;6.60;48.60
3037;DHT22;1528;52.550;13.408;2023-12-20T06:33:14;6.60;48.50
3037;DHT22;1528;52.550;13.408;2023-12-20T06:35:59;6.60;48.60
3037;DHT22;1528;52.550;13.408;2023-12-20T06:38:45;6.70;48.60
3037;DHT22;1528;52.550;13.408;2023-12-20T06:41:30;6.70;48.40
3037;DHT22;1528;52.550;13.408;2023-12-20T06:44:16;6.70;48.50
3037;DHT22;1528;52.550;13.408;2023-12-20T06:47:02;6.70;48.60
3037;DHT22;1528;52.550;13.408;2023-12-20T06:49:49;6.70;48.70
3037;DHT22;1528;52.550;13.408;2023-12-20T06:52:34;6.70;48.50
3037;DHT22;1528;52.550;13.408;2023-12-20T06:55:23;6.80;48.50
3037;DHT22;1528;52.550;13.408;2023-12-20T06:58:08;6.60;48.40
3037;DHT22;1528;52.550;13.408;2023-12-20T07:00:54;6.70;48.40
3037;DHT22;1528;52.550;13.408;2023-12-20T07:03:40;6.70;48.50
3037;DHT22;1528;52.550;13.408;2023-12-20T07:06:29;6.70;48.50
3037;DHT22;1528;52.550;13.408;2023-12-20T07:09:14;6.60;48.30
3037;DHT22;1528;52.550;13.408;2023-12-20T07:12:00;6.70;48.30
3037;DHT22;1528;52.550;13.408;2023-12-20T07:14:46;6.70;48.20
3037;DHT22;1528;52.550;13.408;2023-12-20T07:17:32;6.70;48.10
3037;DHT22;1528;52.550;13.408;2023-12-20T07:20:18;6.70;48.20
3037;DHT22;1528;52.550;13.408;2023-12-20T07:23:05;6.70;48.50
3037;DHT22;1528;52.550;13.408;2023-12-20T07:25:50;6.70;47.80
3037;DHT22;1528;52.550;13.408;2023-12-20T07:28:36;6.80;48.00
3037;DHT22;1528;52.550;13.408;2023-12-20T07:31:22;6.80;48.00
3037;DHT22;1528;52.550;13.408;2023-12-20T07:34:11;6.80;47.40
3037;DHT22;1528;52.550;13.408;2023-12-20T07:36:57;6.80;47.30
3037;DHT22;1528;52.550;13.408;2023-12-20T07:39:44;6.80;47.30
3037;DHT22;1528;52.550;13.408;2023-12-20T07:42:30;6.80;47.20
3037;DHT22;1528;52.550;13.408;2023-12-20T07:45:15;6.80;46.90
3037;DHT22;1528;52.550;13.408;2023-12-20T07:48:01;6.80;47.20
3037;DHT22;1528;52.550;13.408;2023-12-20T07:50:47;6.80;47.20
3037;DHT22;1528;52.550;13.408;2023-12-20T07:53:33;6.90;47.40
3037;DHT22;1528;52.550;13.408;2023-12-20T07:56:20;6.90;47.30
3037;DHT22;1528;52.550;13.408;2023-12-20T07:59:06;7.00;47.00
3037;DHT22;1528;52.550;13.408;2023-12-20T08:01:52;7.00;46.80
3037;DHT22;1528;52.550;13.408;2023-12-20T08:04:37;6.90;46.30
3037;DHT22;1528;52.550;13.408;2023-12-20T08:07:23;6.90;46.20
3037;DHT22;1528;52.550;13.408;2023-12-20T08:10:09;7.00;46.20
3037;DHT22;1528;52.550;13.408;2023-12-20T08:12:56;7.00;46.50
3037;DHT22;1528;52.550;13.408;2023-12-20T08:15:42;7.00;45.80
3037;DHT22;1528;52.550;13.408;2023-12-20T08:18:28;7.00;45.80
3037;DHT22;1528;52.550;13.408;2023-12-20T08:21:13;7.00;46.20
3037;DHT22;1528;52.550;13.408;2023-12-20T08:23:59;7.00;46.00
3037;DHT22;1528;52.550;13.408;2023-12-20T08:26:45;7.00;45.90
3037;DHT22;1528;52.550;13.408;2023-12-20T08:29:32;7.00;45.70
3037;DHT22;1528;52.550;13.408;2023-12-20T08:32:18;7.00;45.90
3037;DHT22;1528;52.550;13.408;2023-12-20T08:35:04;7.00;46.40
3037;DHT22;1528;52.550;13.408;2023-12-20T08:37:50;7.00;45.50
3037;DHT22;1528;52.550;13.408;2023-12-20T08:40:36;7.00;45.40
3037;DHT22;1528;52.550;13.408;2023-12-20T08:43:21;7.00;45.50
3037;DHT22;1528;52.550;13.408;2023-12-20T08:46:08;7.10;45.50
3037;DHT22;1528;52.550;13.408;2023-12-20T08:48:55;7.20;45.00
3037;DHT22;1528;52.550;13.408;2023-12-20T08:51:40;7.30;44.90
3037;DHT22;1528;52.550;13.408;2023-12-20T08:54:26;7.30;45.00
3037;DHT22;1528;52.550;13.408;2023-12-20T08:57:12;7.40;44.60
3037;DHT22;1528;52.550;13.408;2023-12-20T08:59:57;7.40;44.30
3037;DHT22;1528;52.550;13.408;2023-12-20T09:02:44;7.40;44.10
3037;DHT22;1528;52.550;13.408;2023-12-20T09:05:29;7.40;43.90
3037;DHT22;1528;52.550;13.408;2023-12-20T09:08:15;7.40;43.90
3037;DHT22;1528;52.550;13.408;2023-12-20T09:11:00;7.50;43.60
3037;DHT22;1528;52.550;13.408;2023-12-20T09:13:46;7.60;43.70
3037;DHT22;1528;52.550;13.408;2023-12-20T09:16:31;7.70;43.20
3037;DHT22;1528;52.550;13.408;2023-12-20T09:19:18;7.70;43.10
3037;DHT22;1528;52.550;13.408;2023-12-20T09:22:04;7.80;42.80
3037;DHT22;1528;52.550;13.408;2023-12-20T09:24:50;7.80;43.30
3037;DHT22;1528;52.550;13.408;2023-12-20T09:27:35;7.90;42.40
3037;DHT22;1528;52.550;13.408;2023-12-20T09:30:21;7.90;42.40
3037;DHT22;1528;52.550;13.408;2023-12-20T09:33:06;7.90;41.90
3037;DHT22;1528;52.550;13.408;2023-12-20T09:35:53;7.90;41.90
3037;DHT22;1528;52.550;13.408;2023-12-20T09:38:39;7.90;42.30
3037;DHT22;1528;52.550;13.408;2023-12-20T09:41:31;7.90;42.80
3037;DHT22;1528;52.550;13.408;2023-12-20T09:44:18;7.90;42.80
3037;DHT22;1528;52.550;13.408;2023-12-20T09:47:06;7.90;42.50
3037;DHT22;1528;52.550;13.408;2023-12-20T09:49:52;7.90;42.30
3037;DHT22;1528;52.550;13.408;2023-12-20T09:52:40;7.90;42.40
3037;DHT22;1528;52.550;13.408;2023-12-20T09:55:28;7.90;42.20
3037;DHT22;1528;52.550;13.408;2023-12-20T09:58:18;7.90;42.10
3037;DHT22;1528;52.550;13.408;2023-12-20T10:01:05;7.80;42.00
3037;DHT22;1528;52.550;13.408;2023-12-20T10:03:51;7.90;41.70
3037;DHT22;1528;52.550;13.408;2023-12-20T10:06:39;7.90;42.50
3037;DHT22;1528;52.550;13.408;2023-12-20T10:09:27;7.90;41.70
3037;DHT22;1528;52.550;13.408;2023-12-20T10:12:13;7.80;41.30
3037;DHT22;1528;52.550;13.408;2023-12-20T10:15:02;7.90;41.70
3037;DHT22;1528;52.550;13.408;2023-12-20T10:17:51;7.90;41.40
3037;DHT22;1528;52.550;13.408;2023-12-20T10:20:40;7.90;41.70
3037;DHT22;1528;52.550;13.408;2023-12-20T10:23:26;8.00;41.60
3037;DHT22;1528;52.550;13.408;2023-12-20T10:26:19;7.90;41.30
3037;DHT22;1528;52.550;13.408;2023-12-20T10:29:05;7.90;41.20
3037;DHT22;1528;52.550;13.408;2023-12-20T10:31:51;8.00;42.20
3037;DHT22;1528;52.550;13.408;2023-12-20T10:34:41;8.10;40.60
3037;DHT22;1528;52.550;13.408;2023-12-20T10:37:27;8.10;40.40
3037;DHT22;1528;52.550;13.408;2023-12-20T10:40:13;8.10;40.50
3037;DHT22;1528;52.550;13.408;2023-12-20T10:43:01;8.10;40.60
3037;DHT22;1528;52.550;13.408;2023-12-20T10:45:47;8.10;40.50
3037;DHT22;1528;52.550;13.408;2023-12-20T10:48:34;8.10;40.40
3037;DHT22;1528;52.550;13.408;2023-12-20T10:51:21;8.10;40.00
3037;DHT22;1528;52.550;13.408;2023-12-20T10:54:08;8.20;39.50
3037;DHT22;1528;52.550;13.408;2023-12-20T10:56:54;8.20;39.40
3037;DHT22;1528;52.550;13.408;2023-12-20T10:59:45;8.20;39.40
3037;DHT22;1528;52.550;13.408;2023-12-20T11:02:32;8.20;39.40
3037;DHT22;1528;52.550;13.408;2023-12-20T11:05:29;8.20;39.30
3037;DHT22;1528;52.550;13.408;2023-12-20T11:08:20;8.10;39.00
3037;DHT22;1528;52.550;13.408;2023-12-20T11:11:12;8.10;39.00
3037;DHT22;1528;52.550;13.408;2023-12-20T11:14:03;8.10;39.60
3037;DHT22;1528;52.550;13.408;2023-12-20T11:16:50;8.10;39.10
3037;DHT22;1528;52.550;13.408;2023-12-20T11:20:05;8.10;39.40
3037;DHT22;1528;52.550;13.408;2023-12-20T11:22:55;8.20;40.10
3037;DHT22;1528;52.550;13.408;2023-12-20T11:25:47;8.10;40.10
3037;DHT22;1528;52.550;13.408;2023-12-20T11:28:33;8.10;40.40
3037;DHT22;1528;52.550;13.408;2023-12-20T11:31:19;8.10;40.50
3037;DHT22;1528;52.550;13.408;2023-12-20T11:34:14;8.00;40.60
3037;DHT22;1528;52.550;13.408;2023-12-20T11:37:00;8.10;40.80
3037;DHT22;1528;52.550;13.408;2023-12-20T11:39:54;8.10;41.00
3037;DHT22;1528;52.550;13.408;2023-12-20T11:42:40;8.00;41.30
3037;DHT22;1528;52.550;13.408;2023-12-20T11:45:26;7.90;41.10
3037;DHT22;1528;52.550;13.408;2023-12-20T11:48:13;7.90;41.30
3037;DHT22;1528;52.550;13.408;2023-12-20T11:51:00;7.90;41.40
3037;DHT22;1528;52.550;13.408;2023-12-20T11:53:51;8.00;41.70
3037;DHT22;1528;52.550;13.408;2023-12-20T11:56:37;8.00;41.60
3037;DHT22;1528;52.550;13.408;2023-12-20T11:59:23;8.10;41.50
3037;DHT22;1528;52.550;13.408;2023-12-20T12:02:11;8.10;41.60
3037;DHT22;1528;52.550;13.408;2023-12-20T12:04:59;8.10;41.50
3037;DHT22;1528;52.550;13.408;2023-12-20T12:07:46;8.20;41.20
3037;DHT22;1528;52.550;13.408;2023-12-20T12:10:31;8.30;40.90
3037;DHT22;1528;52.550;13.408;2023-12-20T12:13:17;8.30;40.80
3037;DHT22;1528;52.550;13.408;2023-12-20T12:16:04;8.30;40.30
3037;DHT22;1528;52.550;13.408;2023-12-20T12:18:56;8.30;40.40
3037;DHT22;1528;52.550;13.408;2023-12-20T12:21:41;8.20;39.90
3037;DHT22;1528;52.550;13.408;2023-12-20T12:24:28;8.20;40.30
3037;DHT22;1528;52.550;13.408;2023-12-20T12:27:14;8.20;40.00
3037;DHT22;1528;52.550;13.408;2023-12-20T12:30:01;8.20;40.70
3037;DHT22;1528;52.550;13.408;2023-12-20T12:32:48;8.10;40.80
3037;DHT22;1528;52.550;13.408;2023-12-20T12:35:34;8.10;41.20
3037;DHT22;1528;52.550;13.408;2023-12-20T12:38:20;8.00;41.50
3037;DHT22;1528;52.550;13.408;2023-12-20T12:41:07;8.00;41.70
3037;DHT22;1528;52.550;13.408;2023-12-20T12:43:54;8.00;42.40
3037;DHT22;1528;52.550;13.408;2023-12-20T12:46:40;7.80;43.10
3037;DHT22;1528;52.550;13.408;2023-12-20T12:49:27;7.80;43.40
3037;DHT22;1528;52.550;13.408;2023-12-20T12:52:13;7.80;43.20
3037;DHT22;1528;52.550;13.408;2023-12-20T12:54:59;7.70;44.00
3037;DHT22;1528;52.550;13.408;2023-12-20T12:57:46;7.80;43.90
3037;DHT22;1528;52.550;13.408;2023-12-20T13:00:32;7.70;43.50
3037;DHT22;1528;52.550;13.408;2023-12-20T13:03:17;7.80;43.80
3037;DHT22;1528;52.550;13.408;2023-12-20T13:06:04;7.70;43.70
3037;DHT22;1528;52.550;13.408;2023-12-20T13:08:50;7.70;44.00
3037;DHT22;1528;52.550;13.408;2023-12-20T13:11:36;7.70;44.50
3037;DHT22;1528;52.550;13.408;2023-12-20T13:14:23;7.60;44.60
3037;DHT22;1528;52.550;13.408;2023-12-20T13:17:09;7.70;45.50
3037;DHT22;1528;52.550;13.408;2023-12-20T13:19:54;7.70;45.80
3037;DHT22;1528;52.550;13.408;2023-12-20T13:22:40;7.60;46.10
3037;DHT22;1528;52.550;13.408;2023-12-20T13:25:26;7.50;45.60
3037;DHT22;1528;52.550;13.408;2023-12-20T13:28:11;7.50;45.20
3037;DHT22;1528;52.550;13.408;2023-12-20T13:30:58;7.40;43.10
3037;DHT22;1528;52.550;13.408;2023-12-20T13:33:44;7.30;43.20
3037;DHT22;1528;52.550;13.408;2023-12-20T13:36:29;7.30;42.80
3037;DHT22;1528;52.550;13.408;2023-12-20T13:39:15;7.20;42.10
3037;DHT22;1528;52.550;13.408;2023-12-20T13:42:02;7.20;41.30
3037;DHT22;1528;52.550;13.408;2023-12-20T13:44:48;7.20;41.50
3037;DHT22;1528;52.550;13.408;2023-12-20T13:47:35;7.20;41.70
3037;DHT22;1528;52.550;13.408;2023-12-20T13:50:20;7.10;41.30
3037;DHT22;1528;52.550;13.408;2023-12-20T13:53:06;7.10;40.50
3037;DHT22;1528;52.550;13.408;2023-12-20T13:55:52;7.10;40.30
3037;DHT22;1528;52.550;13.408;2023-12-20T13:58:37;7.00;40.80
3037;DHT22;1528;52.550;13.408;2023-12-20T14:01:23;6.90;40.90
3037;DHT22;1528;52.550;13.408;2023-12-20T14:04:11;6.90;41.20
3037;DHT22;1528;52.550;13.408;2023-12-20T14:06:57;6.80;41.10
3037;DHT22;1528;52.550;13.408;2023-12-20T14:09:43;6.90;41.30
3037;DHT22;1528;52.550;13.408;2023-12-20T14:12:29;6.80;41.70
3037;DHT22;1528;52.550;13.408;2023-12-20T14:15:16;6.80;41.50
3037;DHT22;1528;52.550;13.408;2023-12-20T14:18:01;6.80;41.70
3037;DHT22;1528;52.550;13.408;2023-12-20T14:20:49;6.80;41.80
3037;DHT22;1528;52.550;13.408;2023-12-20T14:23:35;6.80;41.80
3037;DHT22;1528;52.550;13.408;2023-12-20T14:26:20;6.80;41.50
3037;DHT22;1528;52.550;13.408;2023-12-20T14:29:07;6.90;41.40
3037;DHT22;1528;52.550;13.408;2023-12-20T14:31:53;7.00;41.20
3037;DHT22;1528;52.550;13.408;2023-12-20T14:34:39;7.00;40.90
3037;DHT22;1528;52.550;13.408;2023-12-20T14:37:25;7.00;40.80
3037;DHT22;1528;52.550;13.408;2023-12-20T14:40:11;7.00;40.40
3037;DHT22;1528;52.550;13.408;2023-12-20T14:43:00;7.00;40.30
3037;DHT22;1528;52.550;13.408;2023-12-20T14:45:48;7.00;40.10
3037;DHT22;1528;52.550;13.408;2023-12-20T14:48:35;7.00;40.20
3037;DHT22;1528;52.550;13.408;2023-12-20T14:51:20;6.90;39.60
3037;DHT22;1528;52.550;13.408;2023-12-20T14:54:08;6.90;39.80
3037;DHT22;1528;52.550;13.408;2023-12-20T14:56:55;6.90;40.00
3037;DHT22;1528;52.550;13.408;2023-12-20T14:59:41;6.80;39.70
3037;DHT22;1528;52.550;13.408;2023-12-20T15:02:27;6.80;40.20
3037;DHT22;1528;52.550;13.408;2023-12-20T15:05:13;6.80;40.20
3037;DHT22;1528;52.550;13.408;2023-12-20T15:07:59;6.80;40.40
3037;DHT22;1528;52.550;13.408;2023-12-20T15:10:46;6.80;40.50
3037;DHT22;1528;52.550;13.408;2023-12-20T15:13:31;6.80;40.70
3037;DHT22;1528;52.550;13.408;2023-12-20T15:16:17;6.90;40.80
3037;DHT22;1528;52.550;13.408;2023-12-20T15:19:02;6.90;40.80
3037;DHT22;1528;52.550;13.408;2023-12-20T15:21:48;6.90;40.90
3037;DHT22;1528;52.550;13.408;2023-12-20T15:24:36;6.90;41.20
3037;DHT22;1528;52.550;13.408;2023-12-20T15:27:26;7.00;41.70
3037;DHT22;1528;52.550;13.408;2023-12-20T15:30:12;6.90;41.90
3037;DHT22;1528;52.550;13.408;2023-12-20T15:32:57;6.90;41.90
3037;DHT22;1528;52.550;13.408;2023-12-20T15:35:43;6.90;42.70
3037;DHT22;1528;52.550;13.408;2023-12-20T15:38:29;6.80;41.90
3037;DHT22;1528;52.550;13.408;2023-12-20T15:41:17;6.80;42.10
3037;DHT22;1528;52.550;13.408;2023-12-20T15:44:04;6.70;42.20
3037;DHT22;1528;52.550;13.408;2023-12-20T15:46:51;6.60;42.40
3037;DHT22;1528;52.550;13.408;2023-12-20T15:49:36;6.60;42.30
3037;DHT22;1528;52.550;13.408;2023-12-20T15:52:22;6.50;42.30
3037;DHT22;1528;52.550;13.408;2023-12-20T15:55:08;6.50;42.30
3037;DHT22;1528;52.550;13.408;2023-12-20T15:57:53;6.40;42.40
3037;DHT22;1528;52.550;13.408;2023-12-20T16:00:40;6.40;42.30
3037;DHT22;1528;52.550;13.408;2023-12-20T16:03:26;6.30;42.30
3037;DHT22;1528;52.550;13.408;2023-12-20T16:06:11;6.30;43.10
3037;DHT22;1528;52.550;13.408;2023-12-20T16:08:57;6.30;42.70
3037;DHT22;1528;52.550;13.408;2023-12-20T16:11:42;6.20;42.80
3037;DHT22;1528;52.550;13.408;2023-12-20T16:14:28;6.20;42.80
3037;DHT22;1528;52.550;13.408;2023-12-20T16:17:15;6.20;42.70
3037;DHT22;1528;52.550;13.408;2023-12-20T16:20:01;6.20;42.90
3037;DHT22;1528;52.550;13.408;2023-12-20T16:22:47;6.20;42.80
3037;DHT22;1528;52.550;13.408;2023-12-20T16:25:33;6.10;42.80
3037;DHT22;1528;52.550;13.408;2023-12-20T16:28:21;6.10;42.90
3037;DHT22;1528;52.550;13.408;2023-12-20T16:31:07;6.00;42.80
3037;DHT22;1528;52.550;13.408;2023-12-20T16:33:54;6.00;42.80
3037;DHT22;1528;52.550;13.408;2023-12-20T16:36:50;6.00;42.90
3037;DHT22;1528;52.550;13.408;2023-12-20T16:39:36;6.00;42.80
3037;DHT22;1528;52.550;13.408;2023-12-20T16:42:22;6.00;42.80
3037;DHT22;1528;52.550;13.408;2023-12-20T16:45:08;6.00;42.80
3037;DHT22;1528;52.550;13.408;2023-12-20T16:47:54;6.00;42.90
3037;DHT22;1528;52.550;13.408;2023-12-20T16:50:41;6.00;42.70
3037;DHT22;1528;52.550;13.408;2023-12-20T16:53:27;6.00;42.70
3037;DHT22;1528;52.550;13.408;2023-12-20T16:56:12;6.00;42.60
3037;DHT22;1528;52.550;13.408;2023-12-20T16:58:58;6.00;42.50
3037;DHT22;1528;52.550;13.408;2023-12-20T17:01:44;6.00;42.40
3037;DHT22;1528;52.550;13.408;2023-12-20T17:04:29;6.00;42.50
3037;DHT22;1528;52.550;13.408;2023-12-20T17:07:18;6.20;42.60
3037;DHT22;1528;52.550;13.408;2023-12-20T17:10:05;6.00;42.50
3037;DHT22;1528;52.550;13.408;2023-12-20T17:12:51;6.00;42.60
3037;DHT22;1528;52.550;13.408;2023-12-20T17:15:37;6.00;42.70
3037;DHT22;1528;52.550;13.408;2023-12-20T17:18:24;6.00;42.70
3037;DHT22;1528;52.550;13.408;2023-12-20T17:21:10;6.00;42.80
3037;DHT22;1528;52.550;13.408;2023-12-20T17:23:57;6.00;42.90
3037;DHT22;1528;52.550;13.408;2023-12-20T17:26:43;6.00;43.00
3037;DHT22;1528;52.550;13.408;2023-12-20T17:29:28;6.00;43.10
3037;DHT22;1528;52.550;13.408;2023-12-20T17:32:14;6.10;43.30
3037;DHT22;1528;52.550;13.408;2023-12-20T17:35:00;6.10;43.30
3037;DHT22;1528;52.550;13.408;2023-12-20T17:37:45;6.10;43.30
3037;DHT22;1528;52.550;13.408;2023-12-20T17:40:32;6.10;44.10
3037;DHT22;1528;52.550;13.408;2023-12-20T17:43:19;6.20;43.40
3037;DHT22;1528;52.550;13.408;2023-12-20T17:46:05;6.20;43.40
3037;DHT22;1528;52.550;13.408;2023-12-20T17:48:51;6.20;43.50
3037;DHT22;1528;52.550;13.408;2023-12-20T17:51:36;6.20;43.50
3037;DHT22;1528;52.550;13.408;2023-12-20T17:54:22;6.20;44.30
3037;DHT22;1528;52.550;13.408;2023-12-20T17:57:09;6.20;43.50
3037;DHT22;1528;52.550;13.408;2023-12-20T17:59:54;6.20;44.20
3037;DHT22;1528;52.550;13.408;2023-12-20T18:02:40;6.30;43.50
3037;DHT22;1528;52.550;13.408;2023-12-20T18:05:25;6.30;43.10
3037;DHT22;1528;52.550;13.408;2023-12-20T18:08:11;6.40;43.20
3037;DHT22;1528;52.550;13.408;2023-12-20T18:10:57;6.40;43.00
3037;DHT22;1528;52.550;13.408;2023-12-20T18:13:44;6.40;42.80